Time,TemperatureF,DewpointF,PressureIn,WindDirection,WindDirectionDegrees,WindSpeedMPH,WindSpeedGustMPH,Humidity,HourlyPrecipIn,Conditions,Clouds,dailyrainin,SoftwareType,DateUTC
2013-06-23 00:01:00,75.1,72.3,30.11,NNE,26,0.0,0.0,91,0.00,,,0.01,VWS V14.00,2013-06-23 04:01:00,
2013-06-23 00:02:00,75.1,72.3,30.11,NNE,26,0.0,0.0,91,0.00,,,0.01,VWS V14.00,2013-06-23 04:02:00,
2013-06-23 00:04:00,75.1,72.3,30.11,NNE,26,0.0,0.0,91,0.00,,,0.00,VWS V14.00,2013-06-23 04:04:00,
2013-06-23 00:09:00,75.1,72.3,30.11,NNE,26,0.0,0.0,91,0.00,,,0.00,VWS V14.00,2013-06-23 04:09:00,
2013-06-23 00:14:00,75.0,72.2,30.11,NNE,26,0.0,0.0,91,0.00,,,0.00,VWS V14.00,2013-06-23 04:14:00,
2013-06-23 00:19:00,75.1,72.6,30.11,NNE,26,0.0,0.0,92,0.00,,,0.00,VWS V14.00,2013-06-23 04:19:00,
2013-06-23 00:24:00,75.1,72.3,30.11,NNE,26,0.0,0.0,91,0.00,,,0.00,VWS V14.00,2013-06-23 04:24:00,
2013-06-23 00:29:00,75.1,72.3,30.11,NNE,26,0.0,0.0,91,0.00,,,0.00,VWS V14.00,2013-06-23 04:29:00,
2013-06-23 00:34:00,75.0,72.2,30.11,NNE,26,0.0,0.0,91,0.00,,,0.00,VWS V14.00,2013-06-23 04:34:00,
2013-06-23 00:39:00,74.9,72.1,30.11,NNE,26,0.0,0.0,91,0.00,,,0.00,VWS V14.00,2013-06-23 04:39:00,
2013-06-23 00:44:00,74.9,72.1,30.11,NNE,26,0.0,0.0,91,0.00,,,0.00,VWS V14.00,2013-06-23 04:44:00,
2013-06-23 00:49:00,74.9,72.4,30.11,NNE,26,0.0,0.0,92,0.00,,,0.00,VWS V14.00,2013-06-23 04:49:00,
2013-06-23 00:54:00,74.9,72.4,30.11,NNE,26,0.0,0.0,92,0.00,,,0.00,VWS V14.00,2013-06-23 04:54:00,
2013-06-23 00:59:00,74.9,72.4,30.10,NNE,26,0.0,0.0,92,0.00,,,0.00,VWS V14.00,2013-06-23 04:59:00,
2013-06-23 01:00:00,75.1,72.3,30.11,NNE,26,0.0,0.0,91,0.00,,,0.01,VWS V14.00,2013-06-23 05:00:00,
2013-06-23 01:04:00,74.8,72.0,30.10,NNE,26,0.0,0.0,91,0.00,,,0.00,VWS V14.00,2013-06-23 05:04:00,
2013-06-23 01:09:00,74.7,71.9,30.10,NNE,26,0.0,0.0,91,0.00,,,0.00,VWS V14.00,2013-06-23 05:09:00,
2013-06-23 01:15:00,74.6,72.1,30.10,NNE,26,0.0,0.0,92,0.00,,,0.00,VWS V14.00,2013-06-23 05:15:00,
2013-06-23 01:20:00,74.6,72.1,30.10,NNE,26,0.0,0.0,92,0.00,,,0.00,VWS V14.00,2013-06-23 05:20:00,
2013-06-23 01:25:00,74.6,72.1,30.10,NNE,26,0.0,0.0,92,0.00,,,0.00,VWS V14.00,2013-06-23 05:25:00,
2013-06-23 01:30:00,74.7,72.2,30.10,NNE,26,0.0,0.0,92,0.00,,,0.00,VWS V14.00,2013-06-23 05:30:00,
2013-06-23 01:35:00,74.6,72.1,30.10,NNE,26,0.0,0.0,92,0.00,,,0.00,VWS V14.00,2013-06-23 05:35:00,
2013-06-23 01:40:00,74.5,72.0,30.10,NNE,26,0.0,0.0,92,0.00,,,0.00,VWS V14.00,2013-06-23 05:40:00,
2013-06-23 01:45:00,74.5,72.0,30.09,NNE,26,0.0,0.0,92,0.00,,,0.00,VWS V14.00,2013-06-23 05:45:00,
2013-06-23 01:50:00,74.5,72.0,30.09,NNE,26,0.0,0.0,92,0.00,,,0.00,VWS V14.00,2013-06-23 05:50:00,
2013-06-23 01:56:00,74.4,71.9,30.09,NNE,26,0.0,0.0,92,0.00,,,0.00,VWS V14.00,2013-06-23 05:56:00,
2013-06-23 02:00:00,74.8,72.3,30.10,NNE,26,0.0,0.0,92,0.00,,,0.00,VWS V14.00,2013-06-23 06:00:00,
2013-06-23 02:01:00,74.4,71.9,30.09,NNE,26,0.0,0.0,92,0.00,,,0.00,VWS V14.00,2013-06-23 06:01:00,
2013-06-23 02:03:00,74.4,71.9,30.09,NNE,26,0.0,0.0,92,0.00,,,0.00,VWS V14.00,2013-06-23 06:03:00,
2013-06-23 02:08:00,74.3,71.8,30.09,NNE,26,0.0,0.0,92,0.00,,,0.00,VWS V14.00,2013-06-23 06:08:00,
2013-06-23 02:13:00,74.3,72.2,30.09,NNE,26,0.0,0.0,93,0.00,,,0.00,VWS V14.00,2013-06-23 06:13:00,
2013-06-23 02:18:00,74.4,72.2,30.09,NNE,26,0.0,0.0,93,0.00,,,0.00,VWS V14.00,2013-06-23 06:18:00,
2013-06-23 02:23:00,74.4,72.2,30.09,NNE,26,0.0,0.0,93,0.00,,,0.00,VWS V14.00,2013-06-23 06:23:00,
2013-06-23 02:28:00,74.3,72.2,30.09,NNE,26,0.0,0.0,93,0.00,,,0.00,VWS V14.00,2013-06-23 06:28:00,
2013-06-23 02:30:00,74.7,72.2,30.10,NNE,26,0.0,0.0,92,0.00,,,0.00,VWS V14.00,2013-06-23 06:30:00,
2013-06-23 02:33:00,74.2,72.1,30.09,NNE,26,0.0,0.0,93,0.00,,,0.00,VWS V14.00,2013-06-23 06:33:00,
2013-06-23 02:38:00,74.1,71.9,30.08,NNE,26,0.0,0.0,93,0.00,,,0.00,VWS V14.00,2013-06-23 06:38:00,
2013-06-23 02:43:00,74.1,71.6,30.08,NNE,26,0.0,0.0,92,0.00,,,0.00,VWS V14.00,2013-06-23 06:43:00,
2013-06-23 02:48:00,74.1,71.9,30.09,NNE,26,0.0,0.0,93,0.00,,,0.00,VWS V14.00,2013-06-23 06:48:00,
2013-06-23 02:53:00,74.0,71.8,30.08,NNE,26,0.0,0.0,93,0.00,,,0.00,VWS V14.00,2013-06-23 06:53:00,
2013-06-23 02:58:00,73.9,71.8,30.09,NNE,26,0.0,0.0,93,0.00,,,0.00,VWS V14.00,2013-06-23 06:58:00,
2013-06-23 03:00:00,74.4,71.9,30.09,NNE,26,0.0,0.0,92,0.00,,,0.00,VWS V14.00,2013-06-23 07:00:00,
2013-06-23 03:03:00,73.8,71.7,30.09,NNE,26,0.0,0.0,93,0.00,,,0.00,VWS V14.00,2013-06-23 07:03:00,
2013-06-23 03:08:00,73.7,71.6,30.08,NNE,26,0.0,0.0,93,0.00,,,0.00,VWS V14.00,2013-06-23 07:08:00,
2013-06-23 03:13:00,73.7,71.6,30.08,NNE,26,0.0,0.0,93,0.00,,,0.00,VWS V14.00,2013-06-23 07:13:00,
2013-06-23 03:18:00,73.6,71.5,30.08,NNE,26,0.0,0.0,93,0.00,,,0.00,VWS V14.00,2013-06-23 07:18:00,
2013-06-23 03:23:00,73.6,71.5,30.08,NNE,26,0.0,0.0,93,0.00,,,0.00,VWS V14.00,2013-06-23 07:23:00,
2013-06-23 03:28:00,73.6,71.5,30.08,NNE,26,0.0,0.0,93,0.00,,,0.00,VWS V14.00,2013-06-23 07:28:00,
2013-06-23 03:30:00,74.3,72.2,30.09,NNE,26,0.0,0.0,93,0.00,,,0.00,VWS V14.00,2013-06-23 07:30:00,
2013-06-23 03:33:00,73.6,71.5,30.08,NNE,26,0.0,0.0,93,0.00,,,0.00,VWS V14.00,2013-06-23 07:33:00,
2013-06-23 03:38:00,73.7,71.6,30.08,NNE,26,0.0,0.0,93,0.00,,,0.00,VWS V14.00,2013-06-23 07:38:00,
2013-06-23 03:43:00,73.6,71.5,30.08,NNE,26,0.0,0.0,93,0.00,,,0.00,VWS V14.00,2013-06-23 07:43:00,
2013-06-23 03:48:00,73.5,71.4,30.08,NNE,26,0.0,0.0,93,0.00,,,0.00,VWS V14.00,2013-06-23 07:48:00,
2013-06-23 03:53:00,73.3,71.2,30.08,NNE,26,0.0,0.0,93,0.00,,,0.00,VWS V14.00,2013-06-23 07:53:00,
2013-06-23 03:58:00,73.2,71.1,30.09,NNE,26,0.0,0.0,93,0.00,,,0.00,VWS V14.00,2013-06-23 07:58:00,
2013-06-23 04:00:00,73.8,71.7,30.09,NNE,26,0.0,0.0,93,0.00,,,0.00,VWS V14.00,2013-06-23 08:00:00,
2013-06-23 04:03:00,73.2,71.1,30.09,NNE,26,0.0,0.0,93,0.00,,,0.00,VWS V14.00,2013-06-23 08:03:00,
2013-06-23 04:09:00,73.2,71.1,30.09,NNE,26,0.0,0.0,93,0.00,,,0.00,VWS V14.00,2013-06-23 08:09:00,
2013-06-23 04:14:00,73.3,71.2,30.08,NNE,26,0.0,0.0,93,0.00,,,0.00,VWS V14.00,2013-06-23 08:14:00,
2013-06-23 04:19:00,73.2,71.4,30.08,NNE,26,0.0,0.0,94,0.00,,,0.00,VWS V14.00,2013-06-23 08:19:00,
2013-06-23 04:24:00,73.2,71.4,30.08,NNE,26,0.0,0.0,94,0.00,,,0.00,VWS V14.00,2013-06-23 08:24:00,
2013-06-23 04:29:00,73.1,71.3,30.08,NNE,26,0.0,0.0,94,0.00,,,0.00,VWS V14.00,2013-06-23 08:29:00,
2013-06-23 04:30:00,73.6,71.5,30.08,NNE,26,0.0,0.0,93,0.00,,,0.00,VWS V14.00,2013-06-23 08:30:00,
2013-06-23 04:34:00,73.1,71.3,30.08,NNE,26,0.0,0.0,94,0.00,,,0.00,VWS V14.00,2013-06-23 08:34:00,
2013-06-23 04:39:00,73.0,71.2,30.08,NNE,26,0.0,0.0,94,0.00,,,0.00,VWS V14.00,2013-06-23 08:39:00,
2013-06-23 04:44:00,73.1,71.3,30.08,NNE,26,0.0,0.0,94,0.00,,,0.00,VWS V14.00,2013-06-23 08:44:00,
2013-06-23 04:49:00,73.1,71.3,30.08,NNE,26,0.0,0.0,94,0.00,,,0.00,VWS V14.00,2013-06-23 08:49:00,
2013-06-23 04:54:00,73.1,71.3,30.08,NNE,26,0.0,0.0,94,0.00,,,0.00,VWS V14.00,2013-06-23 08:54:00,
2013-06-23 04:59:00,73.0,71.2,30.08,NNE,26,0.0,0.0,94,0.00,,,0.00,VWS V14.00,2013-06-23 08:59:00,
2013-06-23 05:00:00,73.2,71.1,30.09,NNE,26,0.0,0.0,93,0.00,,,0.00,VWS V14.00,2013-06-23 09:00:00,
2013-06-23 05:04:00,73.1,71.3,30.08,NNE,26,0.0,0.0,94,0.00,,,0.00,VWS V14.00,2013-06-23 09:04:00,
2013-06-23 05:09:00,73.0,71.2,30.08,NNE,26,0.0,0.0,94,0.00,,,0.00,VWS V14.00,2013-06-23 09:09:00,
2013-06-23 05:14:00,73.0,71.2,30.08,NNE,26,0.0,0.0,94,0.00,,,0.00,VWS V14.00,2013-06-23 09:14:00,
2013-06-23 05:19:00,72.9,71.1,30.08,NNE,26,0.0,0.0,94,0.00,,,0.00,VWS V14.00,2013-06-23 09:19:00,
2013-06-23 05:24:00,73.0,71.2,30.08,NNE,26,0.0,0.0,94,0.00,,,0.00,VWS V14.00,2013-06-23 09:24:00,
2013-06-23 05:29:00,73.0,71.2,30.08,NNE,26,0.0,0.0,94,0.00,,,0.00,VWS V14.00,2013-06-23 09:29:00,
2013-06-23 05:30:00,73.0,71.2,30.08,NNE,26,0.0,0.0,94,0.00,,,0.00,VWS V14.00,2013-06-23 09:30:00,
2013-06-23 05:34:00,73.0,71.2,30.08,NNE,26,0.0,0.0,94,0.00,,,0.00,VWS V14.00,2013-06-23 09:34:00,
2013-06-23 05:39:00,73.0,71.2,30.08,NNE,26,0.0,0.0,94,0.00,,,0.00,VWS V14.00,2013-06-23 09:39:00,
2013-06-23 05:44:00,73.0,71.5,30.08,NNE,26,0.0,0.0,95,0.00,,,0.00,VWS V14.00,2013-06-23 09:44:00,
2013-06-23 05:49:00,72.8,71.3,30.08,NNE,26,0.0,0.0,95,0.00,,,0.00,VWS V14.00,2013-06-23 09:49:00,
2013-06-23 05:54:00,72.8,71.0,30.08,NNE,26,0.0,0.0,94,0.00,,,0.00,VWS V14.00,2013-06-23 09:54:00,
2013-06-23 05:59:00,72.8,71.0,30.08,NNE,26,0.0,0.0,94,0.00,,,0.00,VWS V14.00,2013-06-23 09:59:00,
2013-06-23 06:00:00,73.1,71.3,30.08,NNE,26,0.0,0.0,94,0.00,,,0.00,VWS V14.00,2013-06-23 10:00:00,
2013-06-23 06:04:00,72.7,70.9,30.08,NNE,26,0.0,0.0,94,0.00,,,0.00,VWS V14.00,2013-06-23 10:04:00,
2013-06-23 06:09:00,72.6,70.8,30.08,NNE,26,0.0,0.0,94,0.00,,,0.00,VWS V14.00,2013-06-23 10:09:00,
2013-06-23 06:14:00,72.5,70.7,30.09,NNE,26,0.0,0.0,94,0.00,,,0.00,VWS V14.00,2013-06-23 10:14:00,
2013-06-23 06:20:00,72.4,70.9,30.09,NNE,26,0.0,0.0,95,0.00,,,0.00,VWS V14.00,2013-06-23 10:20:00,
2013-06-23 06:25:00,72.4,70.9,30.09,NNE,26,0.0,0.0,95,0.00,,,0.00,VWS V14.00,2013-06-23 10:25:00,
2013-06-23 06:30:00,72.4,70.9,30.09,NNE,26,0.0,0.0,95,0.00,,,0.00,VWS V14.00,2013-06-23 10:30:00,
2013-06-23 06:35:00,72.4,70.9,30.09,NNE,26,0.0,0.0,95,0.00,,,0.00,VWS V14.00,2013-06-23 10:35:00,
2013-06-23 06:40:00,72.4,70.9,30.09,NNE,26,0.0,0.0,95,0.00,,,0.00,VWS V14.00,2013-06-23 10:40:00,
2013-06-23 06:45:00,72.4,70.9,30.09,NNE,26,0.0,0.0,95,0.00,,,0.00,VWS V14.00,2013-06-23 10:45:00,
2013-06-23 06:50:00,72.4,70.9,30.09,NNE,26,0.0,0.0,95,0.00,,,0.00,VWS V14.00,2013-06-23 10:50:00,
2013-06-23 06:55:00,72.4,70.9,30.10,NNE,26,0.0,0.0,95,0.00,,,0.00,VWS V14.00,2013-06-23 10:55:00,
2013-06-23 07:00:00,72.3,70.8,30.10,NNE,26,0.0,0.0,95,0.00,,,0.00,VWS V14.00,2013-06-23 11:00:00,
2013-06-23 07:05:00,72.4,70.9,30.10,NNE,26,0.0,0.0,95,0.00,,,0.00,VWS V14.00,2013-06-23 11:05:00,
2013-06-23 07:10:00,72.4,70.9,30.10,NNE,26,0.0,0.0,95,0.00,,,0.00,VWS V14.00,2013-06-23 11:10:00,
2013-06-23 07:15:00,72.4,70.9,30.10,NNE,26,0.0,0.0,95,0.00,,,0.00,VWS V14.00,2013-06-23 11:15:00,
2013-06-23 07:20:00,72.6,71.1,30.10,NNE,26,0.0,0.0,95,0.00,,,0.00,VWS V14.00,2013-06-23 11:20:00,
2013-06-23 07:25:00,72.9,71.4,30.10,NNE,26,0.0,0.0,95,0.00,,,0.00,VWS V14.00,2013-06-23 11:25:00,
2013-06-23 07:30:00,73.2,71.7,30.11,NNE,26,0.0,0.0,95,0.00,,,0.00,VWS V14.00,2013-06-23 11:30:00,
2013-06-23 07:35:00,73.5,72.0,30.11,NNE,26,0.0,0.0,95,0.00,,,0.00,VWS V14.00,2013-06-23 11:35:00,
2013-06-23 07:40:00,73.7,72.2,30.11,NNE,26,0.0,0.0,95,0.00,,,0.00,VWS V14.00,2013-06-23 11:40:00,
2013-06-23 07:45:00,74.1,72.6,30.11,NNE,26,0.0,0.0,95,0.00,,,0.00,VWS V14.00,2013-06-23 11:45:00,
2013-06-23 07:50:00,74.3,72.8,30.12,NNE,26,0.0,0.0,95,0.00,,,0.00,VWS V14.00,2013-06-23 11:50:00,
2013-06-23 07:55:00,74.6,73.1,30.12,NNE,26,0.0,0.0,95,0.00,,,0.00,VWS V14.00,2013-06-23 11:55:00,
2013-06-23 08:00:00,74.8,73.3,30.12,NNE,26,0.0,0.0,95,0.00,,,0.00,VWS V14.00,2013-06-23 12:00:00,
2013-06-23 08:05:00,74.9,73.4,30.11,NNE,26,0.0,0.0,95,0.00,,,0.00,VWS V14.00,2013-06-23 12:05:00,
2013-06-23 08:10:00,75.1,73.6,30.11,NNE,26,0.0,0.0,95,0.00,,,0.00,VWS V14.00,2013-06-23 12:10:00,
2013-06-23 08:15:00,75.4,73.9,30.12,NNE,26,0.0,0.0,95,0.00,,,0.00,VWS V14.00,2013-06-23 12:15:00,
2013-06-23 08:20:00,75.5,74.0,30.12,NNE,26,0.0,1.0,95,0.00,,,0.00,VWS V14.00,2013-06-23 12:20:00,
2013-06-23 08:25:00,75.7,74.2,30.12,NNE,26,0.0,1.0,95,0.00,,,0.00,VWS V14.00,2013-06-23 12:25:00,
2013-06-23 08:30:00,73.3,71.8,30.11,NNE,26,0.0,0.0,95,0.00,,,0.00,VWS V14.00,2013-06-23 12:30:00,
2013-06-23 08:31:00,75.8,74.3,30.12,NNE,26,0.0,1.0,95,0.00,,,0.00,VWS V14.00,2013-06-23 12:31:00,
2013-06-23 08:36:00,76.1,74.6,30.12,NNE,26,0.0,0.0,95,0.00,,,0.00,VWS V14.00,2013-06-23 12:36:00,
2013-06-23 08:41:00,76.3,74.8,30.12,NNE,26,0.0,0.0,95,0.00,,,0.00,VWS V14.00,2013-06-23 12:41:00,
2013-06-23 08:46:00,76.5,75.0,30.12,NNE,28,0.0,0.0,95,0.00,,,0.00,VWS V14.00,2013-06-23 12:46:00,
2013-06-23 08:51:00,76.7,75.2,30.12,NNE,28,0.0,0.0,95,0.00,,,0.00,VWS V14.00,2013-06-23 12:51:00,
2013-06-23 08:56:00,77.2,75.7,30.12,NNE,26,0.0,1.0,95,0.00,,,0.00,VWS V14.00,2013-06-23 12:56:00,
2013-06-23 09:00:00,74.8,73.3,30.11,NNE,26,0.0,0.0,95,0.00,,,0.00,VWS V14.00,2013-06-23 13:00:00,
2013-06-23 09:01:00,77.4,75.9,30.12,NNE,24,0.0,1.0,95,0.00,,,0.00,VWS V14.00,2013-06-23 13:01:00,
2013-06-23 09:06:00,77.7,76.2,30.12,NNE,25,0.0,1.0,95,0.00,,,0.00,VWS V14.00,2013-06-23 13:06:00,
2013-06-23 09:11:00,78.2,76.7,30.12,NNE,25,0.0,1.0,95,0.00,,,0.00,VWS V14.00,2013-06-23 13:11:00,
2013-06-23 09:16:00,78.7,76.8,30.13,NNE,25,0.0,1.0,94,0.00,,,0.00,VWS V14.00,2013-06-23 13:16:00,
2013-06-23 09:21:00,78.7,76.5,30.13,NNE,25,0.0,1.0,93,0.00,,,0.00,VWS V14.00,2013-06-23 13:21:00,
2013-06-23 09:26:00,79.0,76.5,30.12,NNE,25,0.0,1.0,92,0.00,,,0.00,VWS V14.00,2013-06-23 13:26:00,
2013-06-23 09:30:00,75.9,74.4,30.12,NNE,26,0.0,1.0,95,0.00,,,0.00,VWS V14.00,2013-06-23 13:30:00,
2013-06-23 09:31:00,79.3,76.4,30.13,North,355,0.0,2.0,91,0.00,,,0.00,VWS V14.00,2013-06-23 13:31:00,
2013-06-23 09:36:00,79.4,75.9,30.13,SW,222,0.0,0.0,89,0.00,,,0.00,VWS V14.00,2013-06-23 13:36:00,
2013-06-23 09:41:00,79.8,75.9,30.13,SW,222,0.0,0.0,88,0.00,,,0.00,VWS V14.00,2013-06-23 13:41:00,
2013-06-23 09:46:00,80.0,75.4,30.13,SW,223,0.0,4.0,86,0.00,,,0.00,VWS V14.00,2013-06-23 13:46:00,
2013-06-23 09:52:00,80.6,76.0,30.13,SW,222,0.0,4.0,86,0.00,,,0.00,VWS V14.00,2013-06-23 13:52:00,
2013-06-23 09:57:00,80.8,75.9,30.13,SW,221,0.0,4.0,85,0.00,,,0.00,VWS V14.00,2013-06-23 13:57:00,
2013-06-23 10:00:00,77.5,76.0,30.12,NNE,24,0.0,1.0,95,0.00,,,0.00,VWS V14.00,2013-06-23 14:00:00,
2013-06-23 10:02:00,81.3,76.0,30.13,SW,222,0.0,0.0,84,0.00,,,0.00,VWS V14.00,2013-06-23 14:02:00,
2013-06-23 10:07:00,81.9,76.2,30.13,West,262,0.0,0.0,83,0.00,,,0.00,VWS V14.00,2013-06-23 14:07:00,
2013-06-23 10:12:00,82.7,76.7,30.13,WNW,303,0.0,1.0,82,0.00,,,0.00,VWS V14.00,2013-06-23 14:12:00,
2013-06-23 10:17:00,83.3,76.1,30.13,South,180,0.0,1.0,79,0.00,,,0.00,VWS V14.00,2013-06-23 14:17:00,
2013-06-23 10:22:00,83.6,76.4,30.13,South,188,0.0,1.0,79,0.00,,,0.00,VWS V14.00,2013-06-23 14:22:00,
2013-06-23 10:27:00,83.5,75.5,30.14,SSW,211,0.0,1.0,77,0.00,,,0.00,VWS V14.00,2013-06-23 14:27:00,
2013-06-23 10:30:00,79.3,76.4,30.13,North,355,0.0,2.0,91,0.00,,,0.00,VWS V14.00,2013-06-23 14:30:00,
2013-06-23 10:33:00,83.5,75.9,30.13,WNW,302,0.0,2.0,78,0.00,,,0.00,VWS V14.00,2013-06-23 14:33:00,
2013-06-23 10:38:00,83.6,75.6,30.13,WSW,246,0.0,2.0,77,0.00,,,0.00,VWS V14.00,2013-06-23 14:38:00,
2013-06-23 10:43:00,84.1,76.1,30.13,SW,236,0.0,5.0,77,0.00,,,0.00,VWS V14.00,2013-06-23 14:43:00,
2013-06-23 10:49:00,84.5,75.3,30.13,NNW,333,0.0,5.0,74,0.00,,,0.00,VWS V14.00,2013-06-23 14:49:00,
2013-06-23 10:54:00,85.3,76.9,30.14,NNW,333,0.0,5.0,76,0.00,,,0.00,VWS V14.00,2013-06-23 14:54:00,
2013-06-23 10:59:00,85.6,75.5,30.14,NNW,333,0.0,5.0,72,0.00,,,0.00,VWS V14.00,2013-06-23 14:59:00,
2013-06-23 11:00:00,81.3,76.0,30.13,SW,221,0.0,4.0,84,0.00,,,0.00,VWS V14.00,2013-06-23 15:00:00,
2013-06-23 11:04:00,85.9,75.0,30.14,SSW,196,0.0,0.0,70,0.00,,,0.00,VWS V14.00,2013-06-23 15:04:00,
2013-06-23 11:09:00,86.4,75.9,30.14,SSW,196,0.0,0.0,71,0.00,,,0.00,VWS V14.00,2013-06-23 15:09:00,
2013-06-23 11:14:00,86.9,75.9,30.14,SSW,195,0.0,0.0,70,0.00,,,0.00,VWS V14.00,2013-06-23 15:14:00,
2013-06-23 11:19:00,87.4,75.6,30.14,SSW,206,0.0,1.0,68,0.00,,,0.00,VWS V14.00,2013-06-23 15:19:00,
2013-06-23 11:24:00,87.8,75.9,30.14,SSW,206,0.0,1.0,68,0.00,,,0.00,VWS V14.00,2013-06-23 15:24:00,
2013-06-23 11:29:00,88.3,75.1,30.14,NW,319,0.0,1.0,65,0.00,,,0.00,VWS V14.00,2013-06-23 15:29:00,
2013-06-23 11:30:00,83.5,76.3,30.13,WNW,302,0.0,1.0,79,0.00,,,0.00,VWS V14.00,2013-06-23 15:30:00,
2013-06-23 11:35:00,88.7,75.9,30.14,West,281,0.0,1.0,66,0.00,,,0.00,VWS V14.00,2013-06-23 15:35:00,
2013-06-23 11:40:00,89.1,75.3,30.14,WNW,299,0.0,1.0,64,0.00,,,0.00,VWS V14.00,2013-06-23 15:40:00,
2013-06-23 11:45:00,89.3,73.6,30.13,WNW,299,0.0,1.0,60,0.00,,,0.00,VWS V14.00,2013-06-23 15:45:00,
2013-06-23 11:50:00,89.8,74.1,30.13,WSW,245,0.0,1.0,60,0.00,,,0.00,VWS V14.00,2013-06-23 15:50:00,
2013-06-23 11:55:00,90.4,74.6,30.13,WSW,257,0.0,1.0,60,0.00,,,0.00,VWS V14.00,2013-06-23 15:55:00,
2013-06-23 12:01:00,90.6,75.8,30.13,North,5,0.0,1.0,62,0.00,,,0.00,VWS V14.00,2013-06-23 16:01:00,
2013-06-23 12:06:00,89.7,75.4,30.13,North,5,0.0,0.0,63,0.00,,,0.00,VWS V14.00,2013-06-23 16:06:00,
2013-06-23 12:11:00,88.8,73.1,30.14,West,259,0.0,3.0,60,0.00,,,0.00,VWS V14.00,2013-06-23 16:11:00,
2013-06-23 12:16:00,88.4,73.7,30.13,West,259,0.0,3.0,62,0.00,,,0.00,VWS V14.00,2013-06-23 16:16:00,
2013-06-23 12:21:00,88.0,73.4,30.13,West,259,0.0,3.0,62,0.00,,,0.00,VWS V14.00,2013-06-23 16:21:00,
2013-06-23 12:26:00,88.1,73.0,30.13,West,259,0.0,3.0,61,0.00,,,0.00,VWS V14.00,2013-06-23 16:26:00,
2013-06-23 12:30:00,88.3,75.1,30.14,NW,319,0.0,1.0,65,0.00,,,0.00,VWS V14.00,2013-06-23 16:30:00,
2013-06-23 12:32:00,88.1,74.9,30.14,West,259,0.0,0.0,65,0.00,,,0.00,VWS V14.00,2013-06-23 16:32:00,
2013-06-23 12:37:00,87.9,74.2,30.14,NNW,340,0.0,1.0,64,0.00,,,0.00,VWS V14.00,2013-06-23 16:37:00,
2013-06-23 12:42:00,87.9,74.7,30.13,NNW,340,0.0,1.0,65,0.00,,,0.00,VWS V14.00,2013-06-23 16:42:00,
2013-06-23 12:47:00,87.9,74.2,30.13,NNW,340,0.0,1.0,64,0.00,,,0.00,VWS V14.00,2013-06-23 16:47:00,
2013-06-23 12:52:00,88.5,73.8,30.13,NNW,333,0.0,1.0,62,0.00,,,0.00,VWS V14.00,2013-06-23 16:52:00,
2013-06-23 12:57:00,88.8,74.1,30.13,NNW,333,0.0,1.0,62,0.00,,,0.00,VWS V14.00,2013-06-23 16:57:00,
2013-06-23 12:58:00,88.7,74.0,30.13,NNW,333,0.0,1.0,62,0.00,,,0.00,VWS V14.00,2013-06-23 16:58:00,
2013-06-23 12:59:00,88.7,74.0,30.13,NNW,333,0.0,1.0,62,0.00,,,0.00,VWS V14.00,2013-06-23 16:59:00,
2013-06-23 13:00:00,90.5,75.2,30.13,North,5,0.0,1.0,61,0.00,,,0.00,VWS V14.00,2013-06-23 17:00:00,
2013-06-23 13:05:00,89.0,74.8,30.12,NNW,333,0.0,1.0,63,0.00,,,0.00,VWS V14.00,2013-06-23 17:05:00,
2013-06-23 13:10:00,90.0,74.8,30.12,NNW,333,0.0,1.0,61,0.00,,,0.00,VWS V14.00,2013-06-23 17:10:00,
2013-06-23 13:15:00,90.6,74.8,30.12,NNW,344,0.0,1.0,60,0.00,,,0.00,VWS V14.00,2013-06-23 17:15:00,
2013-06-23 13:20:00,90.6,76.3,30.12,NNW,344,0.0,1.0,63,0.00,,,0.00,VWS V14.00,2013-06-23 17:20:00,
2013-06-23 13:25:00,90.7,75.4,30.12,NNW,332,0.0,1.0,61,0.00,,,0.00,VWS V14.00,2013-06-23 17:25:00,
2013-06-23 13:30:00,90.4,76.6,30.12,NNW,333,0.0,4.0,64,0.00,,,0.00,VWS V14.00,2013-06-23 17:30:00,
2013-06-23 13:35:00,90.1,75.8,30.12,NNW,346,0.0,0.0,63,0.00,,,0.00,VWS V14.00,2013-06-23 17:35:00,
2013-06-23 13:40:00,90.7,76.8,30.12,NNW,344,0.0,1.0,64,0.00,,,0.00,VWS V14.00,2013-06-23 17:40:00,
2013-06-23 13:45:00,90.7,76.4,30.12,NNW,348,0.0,3.0,63,0.00,,,0.00,VWS V14.00,2013-06-23 17:45:00,
2013-06-23 13:50:00,89.2,75.9,30.12,NNE,30,0.0,3.0,65,0.00,,,0.00,VWS V14.00,2013-06-23 17:50:00,
2013-06-23 13:55:00,87.1,75.3,30.13,NE,43,0.0,3.0,68,0.00,,,0.00,VWS V14.00,2013-06-23 17:55:00,
2013-06-23 14:00:00,88.7,74.5,30.13,NNW,333,0.0,1.0,63,0.00,,,0.00,VWS V14.00,2013-06-23 18:00:00,
2013-06-23 14:01:00,85.5,75.0,30.13,NNE,24,0.0,3.0,71,0.02,,,0.02,VWS V14.00,2013-06-23 18:01:00,
2013-06-23 14:06:00,82.4,74.9,30.14,East,85,0.0,3.0,78,0.16,,,0.16,VWS V14.00,2013-06-23 18:06:00,
2013-06-23 14:11:00,80.2,74.2,30.14,South,176,0.0,7.0,82,0.29,,,0.29,VWS V14.00,2013-06-23 18:11:00,
2013-06-23 14:16:00,79.1,74.2,30.13,South,176,0.0,7.0,85,0.30,,,0.30,VWS V14.00,2013-06-23 18:16:00,
2013-06-23 14:21:00,78.7,74.5,30.13,South,176,0.0,7.0,87,0.30,,,0.30,VWS V14.00,2013-06-23 18:21:00,
2013-06-23 14:26:00,78.3,74.5,30.12,South,176,0.0,7.0,88,0.30,,,0.30,VWS V14.00,2013-06-23 18:26:00,
2013-06-23 14:30:00,90.5,76.7,30.12,NNW,333,0.0,4.0,64,0.00,,,0.00,VWS V14.00,2013-06-23 18:30:00,
2013-06-23 14:31:00,77.8,74.0,30.12,South,176,0.0,7.0,88,0.30,,,0.30,VWS V14.00,2013-06-23 18:31:00,
2013-06-23 14:36:00,77.7,74.2,30.12,South,186,0.0,0.0,89,0.31,,,0.31,VWS V14.00,2013-06-23 18:36:00,
2013-06-23 14:41:00,78.0,74.8,30.12,South,186,0.0,0.0,90,0.31,,,0.31,VWS V14.00,2013-06-23 18:41:00,
2013-06-23 14:46:00,78.2,75.0,30.11,South,186,0.0,0.0,90,0.31,,,0.31,VWS V14.00,2013-06-23 18:46:00,
2013-06-23 14:51:00,78.4,75.6,30.11,South,186,0.0,0.0,91,0.31,,,0.31,VWS V14.00,2013-06-23 18:51:00,
2013-06-23 14:56:00,78.4,75.6,30.10,NW,305,0.0,0.0,91,0.31,,,0.31,VWS V14.00,2013-06-23 18:56:00,
2013-06-23 15:00:00,85.0,75.0,30.13,NNE,24,0.0,3.0,72,0.04,,,0.04,VWS V14.00,2013-06-23 19:00:00,
2013-06-23 15:01:00,78.0,75.2,30.11,NW,305,0.0,0.0,91,0.31,,,0.31,VWS V14.00,2013-06-23 19:01:00,
2013-06-23 15:06:00,78.0,75.2,30.11,NW,305,0.0,0.0,91,0.27,,,0.31,VWS V14.00,2013-06-23 19:06:00,
2013-06-23 15:11:00,78.0,75.2,30.11,NW,305,0.0,0.0,91,0.27,,,0.31,VWS V14.00,2013-06-23 19:11:00,
2013-06-23 15:16:00,78.1,75.6,30.12,WNW,303,0.0,0.0,92,0.27,,,0.31,VWS V14.00,2013-06-23 19:16:00,
2013-06-23 15:21:00,78.0,75.5,30.12,WNW,303,0.0,0.0,92,0.27,,,0.31,VWS V14.00,2013-06-23 19:21:00,
2013-06-23 15:26:00,78.3,75.8,30.11,NW,305,0.0,0.0,92,0.27,,,0.31,VWS V14.00,2013-06-23 19:26:00,
2013-06-23 15:30:00,77.8,74.0,30.12,South,176,0.0,7.0,88,0.30,,,0.30,VWS V14.00,2013-06-23 19:30:00,
2013-06-23 15:31:00,78.6,76.1,30.11,NW,304,0.0,0.0,92,0.27,,,0.31,VWS V14.00,2013-06-23 19:31:00,
2013-06-23 15:36:00,78.7,76.2,30.11,NW,305,0.0,0.0,92,0.01,,,0.31,VWS V14.00,2013-06-23 19:36:00,
2013-06-23 15:41:00,78.7,76.2,30.11,NW,304,0.0,0.0,92,0.01,,,0.31,VWS V14.00,2013-06-23 19:41:00,
2013-06-23 15:47:00,78.9,76.4,30.11,NW,305,0.0,1.0,92,0.01,,,0.31,VWS V14.00,2013-06-23 19:47:00,
2013-06-23 15:52:00,79.3,76.8,30.11,NW,305,0.0,1.0,92,0.01,,,0.31,VWS V14.00,2013-06-23 19:52:00,
2013-06-23 15:57:00,79.8,77.3,30.11,ENE,76,0.0,1.0,92,0.01,,,0.31,VWS V14.00,2013-06-23 19:57:00,
2013-06-23 16:00:00,77.9,75.1,30.11,NW,304,0.0,0.0,91,0.31,,,0.31,VWS V14.00,2013-06-23 20:00:00,
2013-06-23 16:02:00,79.6,76.8,30.10,ENE,76,0.0,0.0,91,0.00,,,0.31,VWS V14.00,2013-06-23 20:02:00,
2013-06-23 16:07:00,79.7,76.8,30.11,ENE,75,1.0,1.0,91,0.00,,,0.31,VWS V14.00,2013-06-23 20:07:00,
2013-06-23 16:12:00,80.0,76.8,30.11,East,94,0.0,1.0,90,0.00,,,0.31,VWS V14.00,2013-06-23 20:12:00,
2013-06-23 16:17:00,79.8,75.9,30.11,East,94,0.0,1.0,88,0.00,,,0.31,VWS V14.00,2013-06-23 20:17:00,
2013-06-23 16:22:00,80.2,76.3,30.10,ENE,67,0.0,1.0,88,0.00,,,0.31,VWS V14.00,2013-06-23 20:22:00,
2013-06-23 16:27:00,80.3,75.7,30.10,ENE,65,0.0,1.0,86,0.00,,,0.31,VWS V14.00,2013-06-23 20:27:00,
2013-06-23 16:30:00,78.6,76.1,30.11,NW,305,0.0,0.0,92,0.27,,,0.31,VWS V14.00,2013-06-23 20:30:00,
2013-06-23 16:32:00,80.6,76.0,30.10,ENE,66,0.0,0.0,86,0.00,,,0.31,VWS V14.00,2013-06-23 20:32:00,
2013-06-23 16:37:00,80.9,76.0,30.10,ENE,65,0.0,0.0,85,0.00,,,0.31,VWS V14.00,2013-06-23 20:37:00,
2013-06-23 16:42:00,81.5,76.6,30.10,South,188,0.0,1.0,85,0.00,,,0.31,VWS V14.00,2013-06-23 20:42:00,
2013-06-23 16:47:00,81.8,76.5,30.10,ENE,65,0.0,1.0,84,0.00,,,0.31,VWS V14.00,2013-06-23 20:47:00,
2013-06-23 16:52:00,82.1,76.4,30.10,ENE,65,0.0,1.0,83,0.00,,,0.31,VWS V14.00,2013-06-23 20:52:00,
2013-06-23 16:57:00,82.1,76.1,30.10,NE,34,0.0,1.0,82,0.00,,,0.31,VWS V14.00,2013-06-23 20:57:00,
2013-06-23 17:00:00,79.6,76.8,30.10,ENE,75,0.0,1.0,91,0.01,,,0.31,VWS V14.00,2013-06-23 21:00:00,
2013-06-23 17:02:00,82.1,76.1,30.10,North,360,0.0,0.0,82,0.00,,,0.31,VWS V14.00,2013-06-23 21:02:00,
2013-06-23 17:07:00,82.1,76.1,30.10,West,269,0.0,0.0,82,0.00,,,0.31,VWS V14.00,2013-06-23 21:07:00,
2013-06-23 17:12:00,82.1,76.1,30.10,West,269,0.0,0.0,82,0.00,,,0.31,VWS V14.00,2013-06-23 21:12:00,
2013-06-23 17:17:00,82.1,76.1,30.10,West,269,0.0,0.0,82,0.00,,,0.31,VWS V14.00,2013-06-23 21:17:00,
2013-06-23 17:22:00,82.1,76.1,30.10,South,173,0.0,3.0,82,0.00,,,0.31,VWS V14.00,2013-06-23 21:22:00,
2013-06-23 17:27:00,82.2,76.2,30.10,South,175,0.0,4.0,82,0.00,,,0.31,VWS V14.00,2013-06-23 21:27:00,
2013-06-23 17:30:00,80.5,75.9,30.10,ENE,66,0.0,1.0,86,0.00,,,0.31,VWS V14.00,2013-06-23 21:30:00,
2013-06-23 17:33:00,82.3,75.9,30.10,WSW,258,0.0,0.0,81,0.00,,,0.31,VWS V14.00,2013-06-23 21:33:00,
2013-06-23 17:38:00,82.3,75.9,30.11,WSW,257,0.0,0.0,81,0.00,,,0.31,VWS V14.00,2013-06-23 21:38:00,
2013-06-23 17:43:00,82.3,75.9,30.11,SSW,198,0.0,7.0,81,0.00,,,0.31,VWS V14.00,2013-06-23 21:43:00,
2013-06-23 17:48:00,82.4,76.0,30.10,NE,49,0.0,7.0,81,0.00,,,0.31,VWS V14.00,2013-06-23 21:48:00,
2013-06-23 17:53:00,82.5,76.1,30.10,SSE,159,0.0,7.0,81,0.00,,,0.31,VWS V14.00,2013-06-23 21:53:00,
2013-06-23 17:58:00,82.5,76.1,30.10,East,80,0.0,7.0,81,0.00,,,0.31,VWS V14.00,2013-06-23 21:58:00,
2013-06-23 18:00:00,82.1,76.4,30.10,North,5,0.0,4.0,83,0.00,,,0.31,VWS V14.00,2013-06-23 22:00:00,
2013-06-23 18:03:00,82.3,75.5,30.10,East,84,0.0,0.0,80,0.00,,,0.31,VWS V14.00,2013-06-23 22:03:00,
2013-06-23 18:08:00,82.2,75.4,30.10,ESE,119,0.0,0.0,80,0.00,,,0.31,VWS V14.00,2013-06-23 22:08:00,
2013-06-23 18:13:00,82.1,75.3,30.09,ESE,119,0.0,0.0,80,0.00,,,0.31,VWS V14.00,2013-06-23 22:13:00,
2013-06-23 18:18:00,81.9,75.1,30.09,West,279,0.0,2.0,80,0.00,,,0.31,VWS V14.00,2013-06-23 22:18:00,
2013-06-23 18:23:00,81.9,75.1,30.09,West,279,0.0,2.0,80,0.00,,,0.31,VWS V14.00,2013-06-23 22:23:00,
2013-06-23 18:28:00,81.8,75.0,30.09,WSW,241,0.0,2.0,80,0.00,,,0.31,VWS V14.00,2013-06-23 22:28:00,
2013-06-23 18:30:00,82.3,75.9,30.10,WSW,257,0.0,4.0,81,0.00,,,0.31,VWS V14.00,2013-06-23 22:30:00,
2013-06-23 18:33:00,81.9,75.1,30.10,WSW,258,0.0,0.0,80,0.00,,,0.31,VWS V14.00,2013-06-23 22:33:00,
2013-06-23 18:38:00,81.9,75.1,30.10,WSW,258,0.0,0.0,80,0.00,,,0.31,VWS V14.00,2013-06-23 22:38:00,
2013-06-23 18:43:00,81.8,75.0,30.10,WSW,258,0.0,0.0,80,0.00,,,0.31,VWS V14.00,2013-06-23 22:43:00,
2013-06-23 18:48:00,81.7,74.9,30.10,WSW,258,0.0,0.0,80,0.00,,,0.31,VWS V14.00,2013-06-23 22:48:00,
2013-06-23 18:53:00,81.7,75.3,30.10,WSW,257,0.0,0.0,81,0.00,,,0.31,VWS V14.00,2013-06-23 22:53:00,
2013-06-23 18:58:00,81.6,74.8,30.10,SSW,199,0.0,1.0,80,0.00,,,0.31,VWS V14.00,2013-06-23 22:58:00,
2013-06-23 19:00:00,82.4,75.6,30.10,East,81,0.0,7.0,80,0.00,,,0.31,VWS V14.00,2013-06-23 23:00:00,
2013-06-23 19:03:00,81.6,75.2,30.10,SSW,199,0.0,0.0,81,0.00,,,0.31,VWS V14.00,2013-06-23 23:03:00,
2013-06-23 19:08:00,81.6,75.2,30.11,SSW,199,0.0,0.0,81,0.00,,,0.31,VWS V14.00,2013-06-23 23:08:00,
2013-06-23 19:14:00,81.5,75.1,30.11,SSW,199,0.0,0.0,81,0.00,,,0.31,VWS V14.00,2013-06-23 23:14:00,
2013-06-23 19:19:00,81.3,74.9,30.11,North,10,0.0,1.0,81,0.00,,,0.31,VWS V14.00,2013-06-23 23:19:00,
2013-06-23 19:24:00,81.2,75.2,30.11,North,10,0.0,1.0,82,0.00,,,0.31,VWS V14.00,2013-06-23 23:24:00,
2013-06-23 19:29:00,81.1,74.7,30.10,North,10,0.0,1.0,81,0.00,,,0.31,VWS V14.00,2013-06-23 23:29:00,
2013-06-23 19:30:00,81.8,75.0,30.10,WSW,258,0.0,2.0,80,0.00,,,0.31,VWS V14.00,2013-06-23 23:30:00,
2013-06-23 19:34:00,81.0,74.6,30.10,North,10,0.0,0.0,81,0.00,,,0.31,VWS V14.00,2013-06-23 23:34:00,
2013-06-23 19:39:00,80.8,74.8,30.10,North,10,0.0,0.0,82,0.00,,,0.31,VWS V14.00,2013-06-23 23:39:00,
2013-06-23 19:44:00,80.8,74.8,30.10,North,10,0.0,0.0,82,0.00,,,0.31,VWS V14.00,2013-06-23 23:44:00,
2013-06-23 19:49:00,80.7,74.7,30.10,North,10,0.0,0.0,82,0.00,,,0.31,VWS V14.00,2013-06-23 23:49:00,
2013-06-23 19:54:00,80.7,75.1,30.10,North,10,0.0,0.0,83,0.00,,,0.31,VWS V14.00,2013-06-23 23:54:00,
2013-06-23 19:59:00,80.6,75.0,30.10,North,10,0.0,0.0,83,0.00,,,0.31,VWS V14.00,2013-06-23 23:59:00,
2013-06-23 20:04:00,80.3,74.7,30.10,North,10,0.0,0.0,83,0.00,,,0.31,VWS V14.00,2013-06-24 00:04:00,
2013-06-23 20:09:00,80.1,74.8,30.10,North,10,0.0,0.0,84,0.00,,,0.31,VWS V14.00,2013-06-24 00:09:00,
2013-06-23 20:14:00,79.9,74.6,30.10,North,10,0.0,0.0,84,0.00,,,0.31,VWS V14.00,2013-06-24 00:14:00,
2013-06-23 20:19:00,79.7,74.4,30.10,North,10,0.0,0.0,84,0.00,,,0.31,VWS V14.00,2013-06-24 00:19:00,
2013-06-23 20:24:00,79.6,74.7,30.11,North,10,0.0,0.0,85,0.00,,,0.31,VWS V14.00,2013-06-24 00:24:00,
2013-06-23 20:29:00,79.4,74.5,30.11,North,10,0.0,0.0,85,0.00,,,0.31,VWS V14.00,2013-06-24 00:29:00,
2013-06-23 20:30:00,81.0,75.0,30.10,North,10,0.0,1.0,82,0.00,,,0.31,VWS V14.00,2013-06-24 00:30:00,
2013-06-23 20:34:00,79.2,74.3,30.11,North,355,0.0,0.0,85,0.00,,,0.31,VWS V14.00,2013-06-24 00:34:00,
2013-06-23 20:39:00,79.0,74.1,30.11,North,355,0.0,0.0,85,0.00,,,0.31,VWS V14.00,2013-06-24 00:39:00,
2013-06-23 20:44:00,78.8,73.9,30.11,North,355,0.0,0.0,85,0.00,,,0.31,VWS V14.00,2013-06-24 00:44:00,
2013-06-23 20:49:00,78.7,73.8,30.11,North,355,0.0,0.0,85,0.00,,,0.31,VWS V14.00,2013-06-24 00:49:00,
2013-06-23 20:55:00,78.7,74.2,30.12,NE,49,0.0,4.0,86,0.00,,,0.31,VWS V14.00,2013-06-24 00:55:00,
2013-06-23 21:00:00,78.7,74.2,30.12,NE,49,0.0,4.0,86,0.00,,,0.31,VWS V14.00,2013-06-24 01:00:00,
2013-06-23 21:05:00,78.7,74.2,30.12,NE,53,0.0,0.0,86,0.00,,,0.31,VWS V14.00,2013-06-24 01:05:00,
2013-06-23 21:10:00,78.7,74.2,30.12,NE,53,0.0,0.0,86,0.00,,,0.31,VWS V14.00,2013-06-24 01:10:00,
2013-06-23 21:15:00,78.6,74.4,30.12,NE,53,0.0,0.0,87,0.00,,,0.31,VWS V14.00,2013-06-24 01:15:00,
2013-06-23 21:20:00,78.5,74.3,30.12,NE,54,0.0,0.0,87,0.00,,,0.31,VWS V14.00,2013-06-24 01:20:00,
2013-06-23 21:25:00,78.5,74.3,30.12,NE,40,0.0,1.0,87,0.00,,,0.31,VWS V14.00,2013-06-24 01:25:00,
2013-06-23 21:30:00,78.4,74.2,30.12,NE,40,0.0,1.0,87,0.00,,,0.31,VWS V14.00,2013-06-24 01:30:00,
2013-06-23 21:35:00,78.2,74.0,30.13,NE,40,0.0,0.0,87,0.00,,,0.31,VWS V14.00,2013-06-24 01:35:00,
2013-06-23 21:40:00,78.1,73.9,30.13,NE,40,0.0,0.0,87,0.00,,,0.31,VWS V14.00,2013-06-24 01:40:00,
2013-06-23 21:46:00,78.1,73.9,30.13,NE,46,0.0,3.0,87,0.00,,,0.31,VWS V14.00,2013-06-24 01:46:00,
2013-06-23 21:51:00,78.0,73.8,30.14,NE,46,0.0,3.0,87,0.00,,,0.31,VWS V14.00,2013-06-24 01:51:00,
2013-06-23 21:56:00,78.0,73.8,30.14,NE,46,0.0,3.0,87,0.00,,,0.31,VWS V14.00,2013-06-24 01:56:00,
2013-06-23 22:00:00,78.7,74.2,30.12,NE,54,0.0,4.0,86,0.00,,,0.31,VWS V14.00,2013-06-24 02:00:00,
2013-06-23 22:01:00,77.9,73.7,30.14,NE,46,0.0,3.0,87,0.00,,,0.31,VWS V14.00,2013-06-24 02:01:00,
2013-06-23 22:06:00,77.9,73.7,30.15,NE,46,0.0,0.0,87,0.00,,,0.31,VWS V14.00,2013-06-24 02:06:00,
2013-06-23 22:11:00,77.8,74.0,30.15,NE,46,0.0,0.0,88,0.00,,,0.31,VWS V14.00,2013-06-24 02:11:00,
2013-06-23 22:16:00,77.8,73.6,30.15,NE,46,0.0,0.0,87,0.00,,,0.31,VWS V14.00,2013-06-24 02:16:00,
2013-06-23 22:21:00,77.8,73.6,30.15,NE,46,0.0,0.0,87,0.00,,,0.31,VWS V14.00,2013-06-24 02:21:00,
2013-06-23 22:26:00,77.7,73.5,30.15,NE,46,0.0,0.0,87,0.00,,,0.31,VWS V14.00,2013-06-24 02:26:00,
2013-06-23 22:30:00,78.3,74.1,30.13,NE,40,0.0,1.0,87,0.00,,,0.31,VWS V14.00,2013-06-24 02:30:00,
2013-06-23 22:31:00,77.6,73.4,30.15,NE,46,0.0,0.0,87,0.00,,,0.31,VWS V14.00,2013-06-24 02:31:00,
2013-06-23 22:36:00,77.5,73.7,30.15,NE,46,0.0,0.0,88,0.00,,,0.31,VWS V14.00,2013-06-24 02:36:00,
2013-06-23 22:41:00,77.5,73.7,30.15,NE,46,0.0,0.0,88,0.00,,,0.31,VWS V14.00,2013-06-24 02:41:00,
2013-06-23 22:46:00,77.4,73.6,30.15,NE,46,0.0,0.0,88,0.00,,,0.31,VWS V14.00,2013-06-24 02:46:00,
2013-06-23 22:51:00,77.3,73.5,30.15,NE,46,0.0,0.0,88,0.00,,,0.31,VWS V14.00,2013-06-24 02:51:00,
2013-06-23 22:56:00,77.3,73.5,30.15,East,84,0.0,1.0,88,0.00,,,0.31,VWS V14.00,2013-06-24 02:56:00,
2013-06-23 23:00:00,77.9,73.7,30.14,NE,46,0.0,3.0,87,0.00,,,0.31,VWS V14.00,2013-06-24 03:00:00,
2013-06-23 23:01:00,77.3,73.5,30.15,East,84,0.0,1.0,88,0.00,,,0.31,VWS V14.00,2013-06-24 03:01:00,
2013-06-23 23:06:00,77.3,73.5,30.15,East,84,0.0,0.0,88,0.00,,,0.31,VWS V14.00,2013-06-24 03:06:00,
2013-06-23 23:11:00,77.3,73.5,30.15,East,84,0.0,0.0,88,0.00,,,0.31,VWS V14.00,2013-06-24 03:11:00,
2013-06-23 23:16:00,77.2,73.4,30.15,East,84,0.0,0.0,88,0.00,,,0.31,VWS V14.00,2013-06-24 03:16:00,
2013-06-23 23:21:00,77.1,73.6,30.15,East,84,0.0,0.0,89,0.00,,,0.31,VWS V14.00,2013-06-24 03:21:00,
2013-06-23 23:27:00,77.1,73.6,30.15,East,84,0.0,0.0,89,0.00,,,0.31,VWS V14.00,2013-06-24 03:27:00,
2013-06-23 23:30:00,77.6,73.4,30.15,NE,46,0.0,0.0,87,0.00,,,0.31,VWS V14.00,2013-06-24 03:30:00,
2013-06-23 23:32:00,77.2,73.7,30.15,East,84,0.0,0.0,89,0.00,,,0.31,VWS V14.00,2013-06-24 03:32:00,
2013-06-23 23:37:00,77.2,73.7,30.15,East,84,0.0,0.0,89,0.00,,,0.31,VWS V14.00,2013-06-24 03:37:00,
2013-06-23 23:42:00,77.1,73.6,30.16,East,84,0.0,0.0,89,0.00,,,0.31,VWS V14.00,2013-06-24 03:42:00,
2013-06-23 23:47:00,77.1,73.6,30.16,East,84,0.0,0.0,89,0.00,,,0.31,VWS V14.00,2013-06-24 03:47:00,
2013-06-23 23:52:00,77.1,73.6,30.16,East,84,0.0,0.0,89,0.00,,,0.31,VWS V14.00,2013-06-24 03:52:00,
2013-06-23 23:57:00,77.0,73.8,30.16,East,84,0.0,0.0,90,0.00,,,0.31,VWS V14.00,2013-06-24 03:57:00,